Time;durP1;ratioP1;P1;durP2;ratioP2;P2;SDS_P1;SDS_P2;PMS_P1;PMS_P2;Temp;Humidity;BMP_temperature;BMP_pressure;BME280_temperature;BME280_humidity;BME280_pressure;Samples;Min_cycle;Max_cycle;Signal;HPM_P1;HPM_P2
2021/01/05 00:00:33;;;;;;;12.10;6.50;;;;;;;0.55;82.97;100128.89;1759373;79;23278;-60
2021/01/05 00:03:00;;;;;;;15.33;7.17;;;;;;;0.54;83.02;100131.53;1778022;78;21166;-60
2021/01/05 00:05:27;;;;;;;15.97;6.70;;;;;;;0.56;83.08;100128.45;1772606;78;21111;-61
2021/01/05 00:07:55;;;;;;;13.00;5.87;;;;;;;0.59;83.16;100133.31;1788222;78;21126;-60
2021/01/05 00:10:22;;;;;;;17.97;6.97;;;;;;;0.61;83.09;100130.63;1788571;78;21191;-61
2021/01/05 00:12:49;;;;;;;16.30;7.93;;;;;;;0.62;83.08;100136.38;1806774;77;21661;-62
2021/01/05 00:15:17;;;;;;;22.17;9.10;;;;;;;0.62;83.17;100142.56;1808769;77;21197;-60
2021/01/05 00:17:44;;;;;;;22.73;9.57;;;;;;;0.63;83.12;100140.80;1809753;77;21190;-60
2021/01/05 00:20:22;;;;;;;22.83;8.80;;;;;;;0.63;83.09;100140.35;1807122;77;21186;-60
2021/01/05 00:22:49;;;;;;;23.60;8.97;;;;;;;0.61;83.10;100136.81;1769557;79;21202;-63
2021/01/05 00:25:18;;;;;;;20.67;8.70;;;;;;;0.61;83.16;100132.84;1804708;77;21557;-61
2021/01/05 00:27:46;;;;;;;22.47;8.87;;;;;;;0.64;83.22;100135.50;1771033;79;21203;-61
2021/01/05 00:30:22;;;;;;;25.50;10.13;;;;;;;0.67;83.24;100126.67;1777420;78;21202;-61
2021/01/05 00:32:51;;;;;;;22.20;9.07;;;;;;;0.70;83.28;100123.98;1806115;77;21185;-60
2021/01/05 00:35:28;;;;;;;22.43;9.63;;;;;;;0.73;83.22;100131.95;1804091;77;21210;-61
2021/01/05 00:37:55;;;;;;;27.20;9.70;;;;;;;0.72;83.08;100132.38;1803325;77;21395;-62
2021/01/05 00:40:23;;;;;;;23.77;8.57;;;;;;;0.65;83.03;100125.78;1808063;77;21498;-61
2021/01/05 00:42:51;;;;;;;19.83;8.03;;;;;;;0.62;83.05;100124.02;1811214;77;21107;-62
2021/01/05 00:45:23;;;;;;;18.60;8.17;;;;;;;0.58;83.08;100126.25;1784096;78;21637;-60
2021/01/05 00:47:50;;;;;;;18.93;8.03;;;;;;;0.56;83.09;100137.72;1781469;78;21178;-61
2021/01/05 00:50:17;;;;;;;17.27;8.90;;;;;;;0.55;83.24;100147.44;1808009;78;23347;-61
2021/01/05 00:52:45;;;;;;;17.93;8.73;;;;;;;0.54;83.22;100140.37;1809547;77;21194;-62
2021/01/05 00:55:13;;;;;;;17.30;7.87;;;;;;;0.50;83.18;100139.95;1812035;77;21155;-62
2021/01/05 00:57:42;;;;;;;18.20;8.83;;;;;;;0.45;83.23;100131.11;1809433;78;21227;-61
2021/01/05 01:00:15;;;;;;;16.27;6.93;;;;;;;0.46;83.27;100134.20;1808942;77;21158;-60
2021/01/05 01:02:43;;;;;;;16.30;7.57;;;;;;;0.48;83.32;100120.52;1809634;77;21222;-61
2021/01/05 01:05:11;;;;;;;19.70;7.90;;;;;;;0.53;83.41;100116.53;1773182;78;21593;-62
2021/01/05 01:07:38;;;;;;;22.23;9.83;;;;;;;0.55;83.38;100110.35;1764933;79;21183;-61
2021/01/05 01:10:08;;;;;;;26.77;10.17;;;;;;;0.57;83.35;100115.20;1769984;79;21198;-62
2021/01/05 01:12:35;;;;;;;24.37;11.17;;;;;;;0.58;83.25;100110.36;1772654;79;21123;-62
2021/01/05 01:15:05;;;;;;;28.60;10.77;;;;;;;0.57;83.18;100110.35;1782158;78;21194;-62
2021/01/05 01:17:33;;;;;;;23.17;9.20;;;;;;;0.59;83.20;100113.45;1783289;78;21213;-60
2021/01/05 01:20:00;;;;;;;28.10;8.97;;;;;;;0.61;83.17;100111.65;1782796;79;21700;-61
2021/01/05 01:22:29;;;;;;;25.47;11.00;;;;;;;0.63;83.13;100108.56;1779040;77;21187;-60
2021/01/05 01:24:58;;;;;;;21.40;10.93;;;;;;;0.65;83.16;100114.75;1773471;79;21593;-62
2021/01/05 01:27:27;;;;;;;21.03;10.80;;;;;;;0.65;83.18;100110.77;1774098;79;21719;-61
2021/01/05 01:29:55;;;;;;;21.20;9.73;;;;;;;0.63;83.14;100108.56;1777482;79;21253;-60
2021/01/05 01:32:22;;;;;;;23.87;8.67;;;;;;;0.62;83.00;100108.12;1773092;79;21182;-60
2021/01/05 01:34:49;;;;;;;24.17;8.37;;;;;;;0.61;82.87;100116.06;1771536;79;22398;-63
2021/01/05 01:37:18;;;;;;;27.33;10.97;;;;;;;0.58;82.70;100114.33;1766351;79;21211;-62
2021/01/05 01:39:47;;;;;;;29.13;11.73;;;;;;;0.56;82.74;100110.80;1778093;79;21174;-61
2021/01/05 01:42:17;;;;;;;28.13;12.43;;;;;;;0.54;82.64;100106.38;1777716;79;21361;-61
2021/01/05 01:44:46;;;;;;;25.80;11.70;;;;;;;0.48;82.67;100104.63;1774358;78;21118;-60
2021/01/05 01:47:22;;;;;;;31.90;13.37;;;;;;;0.45;82.72;100102.42;1802419;77;21146;-62
2021/01/05 01:50:06;;;;;;;27.37;12.93;;;;;;;0.44;82.71;100104.19;1809659;77;21167;-62
2021/01/05 01:53:17;;;;;;;32.33;13.68;;;;;;;0.43;82.72;100101.09;1776891;78;21875;-60
2021/01/05 01:56:24;;;;;;;26.47;12.00;;;;;;;0.44;82.85;100101.53;1799832;78;21240;-63
2021/01/05 01:59:18;;;;;;;33.20;14.00;;;;;;;0.50;82.89;100095.37;1822491;75;26525;-59
2021/01/05 02:02:00;;;;;;;40.93;15.87;;;;;;;0.47;82.83;100100.66;1792944;77;20972;-61
2021/01/05 02:04:47;;;;;;;35.97;16.03;;;;;;;0.43;82.88;100101.09;1797483;77;21366;-62
2021/01/05 02:08:06;;;;;;;31.50;13.93;;;;;;;0.44;82.86;100096.67;1783821;77;21616;-61
2021/01/05 02:10:48;;;;;;;33.10;15.47;;;;;;;0.46;82.88;100100.21;1789241;77;21167;-59
2021/01/05 02:13:32;;;;;;;33.03;14.20;;;;;;;0.48;82.92;100090.50;1768005;77;21170;-61
2021/01/05 02:16:32;;;;;;;36.77;15.63;;;;;;;0.48;82.93;100091.39;1712471;80;21174;-59
2021/01/05 02:19:19;;;;;;;34.43;16.30;;;;;;;0.47;83.01;100094.03;1761828;79;21777;-60
2021/01/05 02:22:21;;;;;;;30.30;14.33;;;;;;;0.43;82.95;100085.64;1737545;79;21008;-61
2021/01/05 02:25:11;;;;;;;34.10;13.83;;;;;;;0.36;82.99;100082.13;1771869;77;21116;-61
2021/01/05 02:27:49;;;;;;;36.20;15.73;;;;;;;0.33;83.04;100078.19;1783560;77;21853;-62
2021/01/05 02:30:22;;;;;;;34.00;15.33;;;;;;;0.31;83.00;100077.30;1795618;77;20981;-61
2021/01/05 02:32:57;;;;;;;38.47;16.90;;;;;;;0.26;83.08;100075.08;1791702;77;22631;-62
2021/01/05 02:35:47;;;;;;;40.63;17.60;;;;;;;0.26;83.10;100075.08;1794988;77;21157;-61
2021/01/05 02:39:04;;;;;;;41.30;15.50;;;;;;;0.24;83.08;100076.44;1738641;80;21593;-61
2021/01/05 02:42:21;;;;;;;35.63;15.13;;;;;;;0.24;82.93;100074.23;1688258;80;21126;-60
2021/01/05 02:45:41;;;;;;;34.93;13.37;;;;;;;0.21;82.93;100060.98;1738021;80;21112;-60
2021/01/05 02:48:48;;;;;;;38.37;15.53;;;;;;;0.22;83.06;100051.72;1704720;81;21193;-60
2021/01/05 02:51:54;;;;;;;41.80;17.30;;;;;;;0.24;83.07;100045.99;1774340;79;21115;-62
2021/01/05 02:55:02;;;;;;;33.37;14.93;;;;;;;0.26;83.16;100047.28;1749659;79;21565;-60
2021/01/05 02:58:19;;;;;;;28.40;14.30;;;;;;;0.29;83.22;100043.31;1769414;79;21809;-62
2021/01/05 03:01:19;;;;;;;28.93;12.50;;;;;;;0.25;83.17;100034.96;1703911;80;21369;-59
2021/01/05 03:04:06;;;;;;;27.10;13.60;;;;;;;0.18;83.17;100030.53;1711053;81;21616;-61
2021/01/05 03:06:56;;;;;;;22.60;10.87;;;;;;;0.11;83.24;100028.34;1718613;81;21219;-61
2021/01/05 03:10:03;;;;;;;27.30;14.13;;;;;;;0.15;83.36;100028.80;1867304;75;26711;-59
2021/01/05 03:13:17;;;;;;;31.53;12.47;;;;;;;0.11;83.36;100025.70;1876651;75;21154;-61
2021/01/05 03:16:23;;;;;;;27.57;13.50;;;;;;;0.09;83.40;100033.20;1821930;77;21486;-60
2021/01/05 03:19:32;;;;;;;25.57;11.37;;;;;;;0.05;83.40;100031.45;1816301;77;21221;-62
2021/01/05 03:22:09;;;;;;;26.17;12.53;;;;;;;0.06;83.46;100033.22;1820675;75;26759;-59
2021/01/05 03:24:55;;;;;;;23.67;11.73;;;;;;;0.00;83.52;100026.19;1803847;77;21190;-61
2021/01/05 03:27:41;;;;;;;23.50;10.93;;;;;;;-0.02;83.46;100030.59;1803910;77;21537;-60
2021/01/05 03:30:41;;;;;;;23.30;11.50;;;;;;;-0.02;83.43;100026.19;1806177;77;22476;-59
2021/01/05 03:33:27;;;;;;;20.23;11.13;;;;;;;-0.01;83.34;100027.95;1804453;77;21159;-63
2021/01/05 03:36:13;;;;;;;25.13;13.30;;;;;;;-0.02;83.39;100027.51;1802281;77;21186;-59
2021/01/05 03:38:58;;;;;;;23.97;12.53;;;;;;;-0.03;83.44;100033.68;1801989;77;21301;-58
2021/01/05 03:41:44;;;;;;;27.70;13.83;;;;;;;-0.05;83.44;100031.47;1793996;77;21202;-57
2021/01/05 03:44:33;;;;;;;24.03;12.40;;;;;;;-0.05;83.51;100030.14;1771637;78;21186;-57
2021/01/05 03:47:17;;;;;;;26.23;13.33;;;;;;;-0.02;83.46;100026.63;1772165;78;21182;-59
2021/01/05 03:50:04;;;;;;;26.13;14.40;;;;;;;-0.03;83.49;100028.39;1766505;78;21634;-59
2021/01/05 03:52:49;;;;;;;22.90;12.07;;;;;;;-0.04;83.54;100029.27;1774853;78;21199;-62
2021/01/05 03:55:35;;;;;;;23.60;12.30;;;;;;;-0.07;83.54;100017.78;1736879;80;21229;-61
2021/01/05 03:58:22;;;;;;;28.33;13.67;;;;;;;-0.08;83.53;100014.26;1720660;80;21997;-61
2021/01/05 04:01:07;;;;;;;25.93;13.40;;;;;;;-0.07;83.52;100013.37;1736743;80;21667;-61
2021/01/05 04:03:34;;;;;;;26.87;15.60;;;;;;;-0.09;83.62;100013.84;1728340;81;22010;-58
2021/01/05 04:06:02;;;;;;;27.80;15.77;;;;;;;-0.10;83.71;100017.38;1769501;79;22208;-60
2021/01/05 04:08:29;;;;;;;31.37;17.30;;;;;;;-0.11;83.80;100016.05;1773864;79;22231;-61
2021/01/05 04:10:57;;;;;;;27.77;15.47;;;;;;;-0.10;83.87;100017.38;1773161;79;21178;-59
2021/01/05 04:13:24;;;;;;;26.63;14.13;;;;;;;-0.10;83.86;100016.05;1767730;79;21627;-58
2021/01/05 04:15:52;;;;;;;23.30;12.17;;;;;;;-0.07;83.95;100013.82;1768539;79;21476;-60
2021/01/05 04:18:19;;;;;;;26.70;14.33;;;;;;;-0.03;83.98;100007.66;1767714;79;21177;-60
2021/01/05 04:20:46;;;;;;;28.10;15.37;;;;;;;-0.01;84.03;100011.19;1720411;80;21351;-61
2021/01/05 04:23:13;;;;;;;32.00;15.03;;;;;;;0.00;84.03;100008.98;1725502;81;21192;-62
2021/01/05 04:25:41;;;;;;;35.00;17.10;;;;;;;-0.01;84.03;100005.89;1725093;81;22118;-58
2021/01/05 04:28:08;;;;;;;30.80;14.83;;;;;;;0.02;84.03;100006.31;1725252;81;21207;-59
2021/01/05 04:30:36;;;;;;;28.10;14.73;;;;;;;0.04;84.04;99999.25;1720729;81;21212;-59
2021/01/05 04:33:07;;;;;;;31.13;13.67;;;;;;;0.09;84.10;100000.11;1748904;80;21752;-59
2021/01/05 04:35:34;;;;;;;22.97;13.10;;;;;;;0.11;84.08;100004.53;1745769;80;22000;-60
2021/01/05 04:38:02;;;;;;;24.50;10.90;;;;;;;0.06;84.06;99998.81;1719444;80;21211;-61
2021/01/05 04:40:36;;;;;;;25.87;13.23;;;;;;;0.04;84.02;100000.14;1722200;81;21303;-60
2021/01/05 04:43:38;;;;;;;22.52;11.80;;;;;;;0.04;84.02;99996.61;1724532;79;21425;-59
2021/01/05 04:46:19;;;;;;;23.40;11.27;;;;;;;0.05;84.05;100002.34;1722435;81;21327;-60
2021/01/05 04:49:15;;;;;;;22.50;12.33;;;;;;;0.06;84.06;100001.02;1716801;81;21175;-60
2021/01/05 04:52:02;;;;;;;20.33;11.00;;;;;;;0.10;84.10;100005.41;1722798;81;21659;-62
2021/01/05 04:54:47;;;;;;;21.63;11.23;;;;;;;0.10;84.08;99997.47;1726133;81;21219;-59
2021/01/05 04:57:23;;;;;;;24.37;11.40;;;;;;;0.11;84.11;99998.35;1700996;82;21186;-60
2021/01/05 05:00:21;;;;;;;17.47;9.70;;;;;;;0.11;84.09;99998.35;1716280;81;22259;-62
2021/01/05 05:03:14;;;;;;;16.83;9.57;;;;;;;0.13;84.03;99997.91;1694435;81;21177;-62
2021/01/05 05:06:16;;;;;;;13.17;8.20;;;;;;;0.11;83.96;100003.64;1718080;81;21276;-62
2021/01/05 05:09:00;;;;;;;18.60;8.33;;;;;;;0.11;83.97;99999.67;1714095;81;22087;-60
2021/01/05 05:11:54;;;;;;;16.50;8.93;;;;;;;0.09;83.95;100005.41;1719120;81;21091;-60
2021/01/05 05:14:42;;;;;;;14.57;8.37;;;;;;;0.04;83.92;99996.61;1714737;81;21374;-60
2021/01/05 05:17:51;;;;;;;17.63;8.77;;;;;;;-0.01;83.93;100002.81;1715240;81;21200;-62
2021/01/05 05:20:55;;;;;;;13.17;7.47;;;;;;;-0.05;83.95;99994.42;1720093;81;21225;-58
2021/01/05 05:23:50;;;;;;;12.80;7.75;;;;;;;-0.05;84.06;99993.53;1738359;80;21198;-59
2021/01/05 05:26:28;;;;;;;16.50;9.10;;;;;;;-0.06;84.11;99995.30;1738407;80;21620;-61
2021/01/05 05:29:03;;;;;;;18.93;9.30;;;;;;;-0.05;84.18;99989.56;1740156;80;22084;-59
2021/01/05 05:31:32;;;;;;;17.50;8.85;;;;;;;-0.04;84.24;99982.95;1718620;80;21186;-62
2021/01/05 05:34:07;;;;;;;16.50;8.50;;;;;;;-0.03;84.19;99981.19;1736805;80;21209;-63
2021/01/05 05:36:46;;;;;;;12.67;7.43;;;;;;;-0.01;84.22;99984.28;1735593;80;21249;-61
2021/01/05 05:39:51;;;;;;;12.97;7.33;;;;;;;0.04;84.26;99982.05;1738208;80;21221;-63
2021/01/05 05:42:51;;;;;;;12.65;7.87;;;;;;;0.07;84.31;99983.38;1740016;80;21655;-59
2021/01/05 05:45:36;;;;;;;15.17;6.80;;;;;;;0.07;84.19;99979.41;1741220;80;21200;-61
2021/01/05 05:48:30;;;;;;;14.98;8.28;;;;;;;-0.01;84.27;99973.70;1737572;80;21213;-63
2021/01/05 05:51:36;;;;;;;12.23;5.93;;;;;;;-0.04;84.26;99972.38;1739179;80;21181;-60
2021/01/05 05:54:18;;;;;;;15.10;7.67;;;;;;;-0.03;84.40;99976.78;1738262;80;21213;-62
2021/01/05 05:57:18;;;;;;;11.97;6.93;;;;;;;-0.05;84.47;99975.89;1739318;80;21216;-58
2021/01/05 05:59:49;;;;;;;11.37;6.97;;;;;;;-0.03;84.54;99966.64;1739604;80;21234;-60
2021/01/05 06:02:19;;;;;;;13.00;8.23;;;;;;;0.02;84.63;99965.29;1740184;80;21190;-62
2021/01/05 06:04:46;;;;;;;16.83;9.20;;;;;;;0.04;84.60;99964.84;1738288;80;21771;-62
2021/01/05 06:07:13;;;;;;;10.17;6.27;;;;;;;0.06;84.63;99961.77;1737462;80;21268;-60
2021/01/05 06:09:41;;;;;;;14.10;7.27;;;;;;;0.08;84.54;99966.18;1736670;80;21212;-60
2021/01/05 06:12:08;;;;;;;12.87;7.27;;;;;;;0.08;84.47;99967.94;1747404;80;21229;-61
2021/01/05 06:14:36;;;;;;;13.33;7.23;;;;;;;0.08;84.53;99967.50;1765949;79;21169;-60
2021/01/05 06:17:03;;;;;;;13.97;7.90;;;;;;;0.10;84.55;99964.38;1735911;80;21205;-60
2021/01/05 06:19:31;;;;;;;14.80;9.17;;;;;;;0.13;84.58;99965.70;1711243;80;21181;-61
2021/01/05 06:21:58;;;;;;;11.90;7.53;;;;;;;0.14;84.56;99963.95;1751102;79;22801;-61
2021/01/05 06:24:25;;;;;;;12.67;7.50;;;;;;;0.14;84.49;99971.89;1765114;79;21201;-62
2021/01/05 06:26:52;;;;;;;10.50;6.23;;;;;;;0.12;84.39;99963.06;1769586;79;21234;-59
2021/01/05 06:29:19;;;;;;;15.10;8.00;;;;;;;0.13;84.40;99965.70;1766459;79;21199;-58
2021/01/05 06:31:46;;;;;;;14.37;8.03;;;;;;;0.13;84.46;99960.41;1772659;79;21597;-58
2021/01/05 06:34:14;;;;;;;13.10;7.27;;;;;;;0.15;84.48;99961.30;1764466;79;21436;-62
2021/01/05 06:36:41;;;;;;;13.10;8.43;;;;;;;0.18;84.47;99970.53;1772091;79;21155;-60
2021/01/05 06:39:09;;;;;;;12.63;8.07;;;;;;;0.18;84.49;99968.33;1785097;79;21158;-58
2021/01/05 06:41:36;;;;;;;15.33;9.27;;;;;;;0.19;84.48;99972.73;1780655;79;21894;-61
2021/01/05 06:44:04;;;;;;;14.07;8.63;;;;;;;0.16;84.40;99963.50;1785698;79;21193;-60
2021/01/05 06:46:32;;;;;;;12.70;7.97;;;;;;;0.14;84.48;99970.56;1776927;79;22017;-61
2021/01/05 06:48:59;;;;;;;14.70;8.57;;;;;;;0.11;84.54;99965.27;1770911;79;21180;-59
2021/01/05 06:51:26;;;;;;;13.07;8.40;;;;;;;0.12;84.64;99968.36;1769096;79;21532;-59
2021/01/05 06:53:54;;;;;;;14.93;9.97;;;;;;;0.15;84.67;99965.71;1767385;79;21620;-60
2021/01/05 06:56:22;;;;;;;14.97;9.40;;;;;;;0.15;84.59;99981.16;1768162;79;21197;-60
2021/01/05 06:58:50;;;;;;;16.20;9.73;;;;;;;0.11;84.48;99987.33;1769931;79;21695;-60
2021/01/05 07:01:17;;;;;;;13.93;8.73;;;;;;;0.07;84.41;99983.38;1769804;79;21198;-62
2021/01/05 07:03:44;;;;;;;13.70;7.67;;;;;;;0.05;84.48;99981.17;1770299;79;21179;-59
2021/01/05 07:06:11;;;;;;;11.77;6.30;;;;;;;0.04;84.55;99980.73;1770354;79;21194;-60
2021/01/05 07:08:38;;;;;;;17.30;9.53;;;;;;;0.05;84.63;99982.49;1771459;79;21134;-60
2021/01/05 07:11:05;;;;;;;14.10;9.10;;;;;;;0.07;84.69;99985.59;1770550;79;21337;-62
2021/01/05 07:13:33;;;;;;;17.63;9.13;;;;;;;0.09;84.73;99990.84;1772694;79;21535;-59
2021/01/05 07:16:01;;;;;;;16.83;10.87;;;;;;;0.07;84.56;99991.32;1770417;79;21178;-61
2021/01/05 07:18:28;;;;;;;14.33;8.10;;;;;;;0.04;84.58;99979.41;1764710;79;21585;-58
2021/01/05 07:20:56;;;;;;;20.90;9.93;;;;;;;0.03;84.64;99975.88;1768346;79;21198;-59
2021/01/05 07:23:23;;;;;;;18.10;9.93;;;;;;;0.04;84.69;99966.17;1773916;79;21684;-61
2021/01/05 07:25:50;;;;;;;14.17;10.13;;;;;;;0.05;84.71;99970.59;1770359;79;21786;-59
2021/01/05 07:28:17;;;;;;;19.00;11.30;;;;;;;0.06;84.75;99969.70;1765966;79;21178;-62
2021/01/05 07:30:45;;;;;;;19.57;10.97;;;;;;;0.07;84.74;99963.53;1767021;79;21151;-59
2021/01/05 07:33:12;;;;;;;20.03;11.03;;;;;;;0.09;84.72;99969.23;1769147;79;21202;-59
2021/01/05 07:35:41;;;;;;;15.67;9.90;;;;;;;0.12;84.69;99969.23;1769898;79;21495;-60
2021/01/05 07:38:10;;;;;;;18.87;9.50;;;;;;;0.15;84.74;99974.98;1768598;79;21194;-61
2021/01/05 07:40:37;;;;;;;14.43;9.00;;;;;;;0.18;84.76;99981.13;1772882;79;21150;-63
2021/01/05 07:43:04;;;;;;;20.23;10.80;;;;;;;0.23;84.75;99979.36;1767429;79;21159;-60
2021/01/05 07:45:32;;;;;;;20.10;11.43;;;;;;;0.24;84.62;99974.51;1744458;80;21158;-61
2021/01/05 07:47:59;;;;;;;19.20;11.93;;;;;;;0.24;84.61;99981.13;1717759;81;21206;-60
2021/01/05 07:50:26;;;;;;;19.83;11.30;;;;;;;0.23;84.55;99987.74;1731935;81;21213;-59
2021/01/05 07:52:55;;;;;;;18.53;12.37;;;;;;;0.22;84.55;99989.95;1780028;79;21126;-58
2021/01/05 07:55:24;;;;;;;18.20;10.77;;;;;;;0.22;84.58;99983.33;1780616;79;21734;-59
2021/01/05 07:57:53;;;;;;;19.43;12.67;;;;;;;0.25;84.53;99979.36;1781302;79;21531;-59
2021/01/05 08:00:25;;;;;;;24.23;13.90;;;;;;;0.24;84.53;99980.25;1772332;79;21379;-58
2021/01/05 08:02:56;;;;;;;23.97;14.50;;;;;;;0.24;84.55;99969.66;1775044;79;21210;-61
2021/01/05 08:05:26;;;;;;;25.73;15.10;;;;;;;0.24;84.53;99978.92;1769452;79;21123;-59
2021/01/05 08:07:54;;;;;;;27.00;14.70;;;;;;;0.23;84.58;99974.06;1771197;79;21400;-57
2021/01/05 08:10:31;;;;;;;29.20;16.13;;;;;;;0.28;84.56;99978.01;1768192;79;21201;-59
2021/01/05 08:13:00;;;;;;;27.03;16.47;;;;;;;0.29;84.42;99971.39;1768942;79;21792;-59
2021/01/05 08:15:29;;;;;;;27.53;15.97;;;;;;;0.30;84.45;99965.21;1773895;79;21159;-59
2021/01/05 08:17:57;;;;;;;27.90;18.43;;;;;;;0.32;84.48;99971.39;1766654;79;21109;-62
2021/01/05 08:20:26;;;;;;;30.83;18.53;;;;;;;0.36;84.49;99964.30;1772389;79;21647;-58
2021/01/05 08:22:54;;;;;;;36.70;21.17;;;;;;;0.40;84.45;99961.20;1756080;79;21162;-60
2021/01/05 08:25:22;;;;;;;35.20;19.50;;;;;;;0.41;84.40;99948.41;1712488;82;21255;-61
2021/01/05 08:27:51;;;;;;;30.40;18.33;;;;;;;0.43;84.35;99940.87;1700646;82;21234;-60
2021/01/05 08:30:28;;;;;;;34.27;19.60;;;;;;;0.43;84.22;99937.34;1700542;82;21118;-62
2021/01/05 08:32:59;;;;;;;32.23;17.90;;;;;;;0.36;84.12;99936.49;1737316;80;21126;-59
2021/01/05 08:35:28;;;;;;;32.13;19.03;;;;;;;0.31;84.21;99921.97;1696632;82;21110;-60
2021/01/05 08:37:56;;;;;;;35.03;20.10;;;;;;;0.30;84.32;99924.61;1700815;82;21227;-58
2021/01/05 08:40:27;;;;;;;37.53;21.00;;;;;;;0.28;84.31;99910.05;1702298;82;21162;-59
2021/01/05 08:42:56;;;;;;;34.50;21.20;;;;;;;0.26;84.40;99925.05;1702654;82;21151;-59
2021/01/05 08:45:25;;;;;;;29.73;18.30;;;;;;;0.26;84.44;99930.35;1699639;82;21139;-60
2021/01/05 08:47:52;;;;;;;25.47;13.67;;;;;;;0.30;84.40;99919.31;1704942;82;21142;-61
2021/01/05 08:50:28;;;;;;;25.57;16.23;;;;;;;0.31;84.32;99929.91;1706532;82;21552;-62
2021/01/05 08:52:53;;;;;;;28.00;16.80;;;;;;;0.33;84.28;99932.55;1701070;82;21157;-60
2021/01/05 08:55:20;;;;;;;28.43;17.67;;;;;;;0.34;84.31;99929.02;1700648;82;21130;-61
2021/01/05 08:57:47;;;;;;;33.73;17.83;;;;;;;0.33;84.34;99935.20;1686779;82;21126;-58
2021/01/05 09:00:15;;;;;;;31.70;16.73;;;;;;;0.35;84.40;99940.02;1741345;80;21654;-59
2021/01/05 09:02:42;;;;;;;27.43;16.13;;;;;;;0.37;84.33;99939.58;1746825;80;21754;-61
2021/01/05 09:05:11;;;;;;;26.00;15.67;;;;;;;0.42;84.32;99945.76;1750889;80;21174;-58
2021/01/05 09:07:38;;;;;;;24.13;14.37;;;;;;;0.45;84.27;99948.81;1752303;80;21617;-58
2021/01/05 09:10:07;;;;;;;28.67;15.57;;;;;;;0.48;84.24;99937.78;1752560;80;21185;-60
2021/01/05 09:12:35;;;;;;;30.27;16.47;;;;;;;0.51;84.28;99942.19;1703160;82;21202;-58
2021/01/05 09:15:04;;;;;;;27.23;15.87;;;;;;;0.53;84.27;99930.67;1703806;82;21703;-62
2021/01/05 09:20:24;;;;;;;26.27;14.97;;;;;;;0.61;84.11;99935.48;1757826;79;26702;-61
2021/01/05 09:22:53;;;;;;;21.80;13.57;;;;;;;0.56;84.02;99935.97;1724408;80;21239;-60
2021/01/05 09:25:20;;;;;;;24.13;13.00;;;;;;;0.56;83.98;99924.48;1721658;80;21312;-59
2021/01/05 09:27:51;;;;;;;17.53;12.30;;;;;;;0.55;84.04;99916.98;1727580;80;21242;-60
2021/01/05 09:30:20;;;;;;;25.17;14.57;;;;;;;0.57;84.01;99899.33;1724547;80;21183;-63
2021/01/05 09:32:47;;;;;;;18.33;12.40;;;;;;;0.59;83.96;99896.23;1724367;80;21171;-63
2021/01/05 09:35:15;;;;;;;24.57;14.67;;;;;;;0.59;83.96;99901.53;1727215;80;20973;-62
2021/01/05 09:37:45;;;;;;;21.20;13.57;;;;;;;0.58;83.88;99890.49;1725480;80;21787;-62
2021/01/05 09:40:14;;;;;;;21.80;12.33;;;;;;;0.58;83.88;99878.58;1723848;80;21127;-62
2021/01/05 09:42:42;;;;;;;19.07;10.93;;;;;;;0.60;83.82;99892.66;1702452;80;21214;-62
2021/01/05 09:45:10;;;;;;;17.07;10.40;;;;;;;0.61;83.78;99890.45;1698280;82;21217;-60
2021/01/05 09:47:38;;;;;;;18.30;10.47;;;;;;;0.61;83.77;99880.30;1655450;85;21225;-60
2021/01/05 09:50:06;;;;;;;17.03;10.03;;;;;;;0.61;83.76;99879.86;1664309;84;22092;-59
2021/01/05 09:52:35;;;;;;;15.23;8.93;;;;;;;0.61;83.73;99871.91;1658741;84;21794;-59
2021/01/05 09:55:05;;;;;;;15.97;8.50;;;;;;;0.61;83.74;99874.56;1668268;83;21191;-62
2021/01/05 09:57:32;;;;;;;14.70;8.97;;;;;;;0.62;83.60;99878.97;1672583;83;21850;-60
2021/01/05 09:59:59;;;;;;;10.80;6.43;;;;;;;0.62;83.48;99871.03;1670134;83;21237;-61
2021/01/05 10:02:27;;;;;;;12.20;6.43;;;;;;;0.62;83.52;99866.17;1659989;84;21696;-61
2021/01/05 10:04:54;;;;;;;13.10;7.50;;;;;;;0.62;83.49;99872.34;1663646;84;21186;-62
2021/01/05 10:07:23;;;;;;;10.87;5.73;;;;;;;0.63;83.44;99858.22;1664387;84;21194;-61
2021/01/05 10:09:50;;;;;;;17.37;7.83;;;;;;;0.62;83.47;99862.20;1658776;84;21255;-59
2021/01/05 10:12:17;;;;;;;15.37;9.10;;;;;;;0.60;83.46;99854.25;1662176;84;21691;-60
2021/01/05 10:14:44;;;;;;;12.47;6.20;;;;;;;0.58;83.46;99861.36;1663165;84;21923;-61
2021/01/05 10:17:11;;;;;;;11.07;6.73;;;;;;;0.58;83.50;99858.70;1660224;84;21227;-59
2021/01/05 10:19:39;;;;;;;12.23;7.43;;;;;;;0.58;83.53;99859.15;1656020;84;22374;-64
2021/01/05 10:22:06;;;;;;;12.87;7.33;;;;;;;0.59;83.58;99853.84;1663735;83;21415;-60
2021/01/05 10:24:33;;;;;;;14.37;7.93;;;;;;;0.58;83.55;99838.84;1658090;84;21246;-61
2021/01/05 10:27:00;;;;;;;15.37;8.70;;;;;;;0.57;83.63;99841.50;1663667;83;21625;-63
2021/01/05 10:29:28;;;;;;;15.90;7.50;;;;;;;0.57;83.66;99842.38;1643627;85;21225;-63
2021/01/05 10:31:55;;;;;;;12.70;7.53;;;;;;;0.60;83.65;99837.48;1626729;86;21204;-58
2021/01/05 10:34:23;;;;;;;15.27;6.90;;;;;;;0.62;83.67;99837.91;1664969;83;21202;-62
2021/01/05 10:36:58;;;;;;;14.73;8.47;;;;;;;0.65;83.68;99831.72;1657067;84;21209;-62
2021/01/05 10:39:26;;;;;;;;;;;;;;;0.66;83.67;99831.72;1647712;85;22295;-63
2021/01/05 10:41:55;;;;;;;16.10;8.50;;;;;;;0.69;83.67;99833.44;1660132;83;20997;-63
2021/01/05 10:44:22;;;;;;;16.57;8.90;;;;;;;0.67;83.71;99812.73;1656353;84;21212;-60
2021/01/05 10:46:50;;;;;;;18.00;9.00;;;;;;;0.65;83.74;99819.36;1637619;85;21257;-59
2021/01/05 10:49:17;;;;;;;18.17;10.33;;;;;;;0.66;83.75;99821.13;1638848;84;21283;-59
2021/01/05 10:51:52;;;;;;;16.57;9.20;;;;;;;0.68;83.75;99812.69;1629914;83;22840;-60
2021/01/05 10:54:20;;;;;;;15.73;8.37;;;;;;;0.67;83.79;99809.64;1623601;86;21191;-62
2021/01/05 10:57:00;;;;;;;15.90;8.83;;;;;;;0.71;83.88;99796.78;1627518;87;21215;-62
2021/01/05 10:59:27;;;;;;;20.07;11.67;;;;;;;0.74;83.87;99796.77;1625672;86;21562;-60
2021/01/05 11:01:59;;;;;;;19.47;11.10;;;;;;;0.76;83.86;99796.77;1630068;86;21240;-63
2021/01/05 11:04:28;;;;;;;22.10;13.10;;;;;;;0.76;83.86;99799.41;1621551;87;21405;-63
2021/01/05 11:07:01;;;;;;;15.33;10.17;;;;;;;0.76;83.83;99803.39;1605541;87;21243;-60
2021/01/05 11:09:28;;;;;;;16.97;9.83;;;;;;;0.74;83.87;99800.75;1625689;87;21183;-60
2021/01/05 11:11:58;;;;;;;20.03;11.93;;;;;;;0.76;83.94;99794.12;1628216;86;21818;-59
2021/01/05 11:14:25;;;;;;;20.90;12.13;;;;;;;0.81;83.97;99796.71;1623059;87;21272;-63
2021/01/05 11:16:53;;;;;;;21.17;14.90;;;;;;;0.83;83.96;99797.14;1629435;86;21409;-61
2021/01/05 11:19:21;;;;;;;29.10;15.80;;;;;;;0.84;83.96;99800.23;1627237;85;21192;-61
2021/01/05 11:21:55;;;;;;;31.77;19.03;;;;;;;0.85;84.03;99803.28;1620638;87;22151;-59
2021/01/05 11:24:24;;;;;;;29.95;17.90;;;;;;;0.84;84.03;99798.91;1617698;87;21255;-61
2021/01/05 11:26:51;;;;;;;28.20;16.97;;;;;;;0.83;84.07;99797.59;1660303;84;21846;-60
2021/01/05 11:29:19;;;;;;;30.17;16.83;;;;;;;0.84;84.08;99788.75;1661680;84;22212;-59
2021/01/05 11:31:57;;;;;;;28.17;17.83;;;;;;;0.86;84.13;99793.56;1671153;84;21649;-60
2021/01/05 11:34:32;;;;;;;26.27;17.63;;;;;;;0.92;84.15;99789.56;1829257;76;26615;-59
2021/01/05 11:37:06;;;;;;;34.73;20.50;;;;;;;0.91;84.14;99779.84;1804430;77;21151;-57
2021/01/05 11:39:33;;;;;;;34.83;21.70;;;;;;;0.90;84.12;99784.71;1803336;77;21466;-58
2021/01/05 11:42:02;;;;;;;36.57;21.33;;;;;;;0.90;84.07;99793.98;1784819;77;21081;-58
2021/01/05 11:44:29;;;;;;;32.27;19.40;;;;;;;0.86;84.11;99782.97;1773614;78;20969;-60
2021/01/05 11:46:56;;;;;;;34.70;19.27;;;;;;;0.89;84.16;99772.34;1776777;78;20997;-61
2021/01/05 11:49:24;;;;;;;33.23;19.20;;;;;;;0.89;84.15;99764.40;1772177;78;21109;-62
2021/01/05 11:51:54;;;;;;;31.63;19.83;;;;;;;0.92;84.16;99770.56;1775290;78;21407;-60
2021/01/05 11:54:22;;;;;;;39.90;22.17;;;;;;;0.93;84.20;99778.95;1771199;78;21198;-61
2021/01/05 11:56:49;;;;;;;36.00;22.80;;;;;;;0.93;84.13;99769.67;1770265;78;21024;-60
2021/01/05 11:59:16;;;;;;;38.33;22.20;;;;;;;0.91;84.05;99774.10;1773305;78;21166;-61
2021/01/05 12:01:43;;;;;;;37.90;21.40;;;;;;;0.88;84.09;99779.86;1772914;78;21194;-58